Latest Weather Observations for Palmerville

IDQ60801

Issued at 8:32 pm EST Sunday 1 March 2015 (issued every 30 minutes, with the page automatically refreshed every 10 minutes)

About weather observations | Map of weather stations | Latest weather observations for QLD | Other Formats
Station Details ID: 028004 Name: PALMERVILLE Lat: -16.00 Lon: 144.08 Height: 203.8 m
Data from the previous 72 hours. | See also: Recent months at Palmerville
Date/Time
EST
Temp
°C
App
Temp
°C
Dew
Point
Rel
Hum
%
Delta-T
°C
Wind Press
QNH
hPa
Press
MSL
hPa
Rain
since 9 am
mm
Dir
 
Spd
km/h
Gust
km/h
Spd
kts
Gust
kts
01/08:00pm 30.2 32.3 21.0 58 6.2 N 11 15 6 8 1007.1 1005.8 0.0
01/07:30pm 30.5 33.0 21.0 57 6.4 N 9 13 5 7 1006.8 1005.5 0.0
01/07:00pm 31.1 33.4 20.7 54 7.0 N 9 13 5 7 1006.4 1005.1 0.0
01/06:30pm 32.0 34.7 20.3 50 7.8 NNW 6 9 3 5 1006.1 1004.7 0.0
01/06:00pm 32.3 34.3 19.9 48 8.3 NNW 9 13 5 7 1005.8 1004.4 0.0
01/05:30pm 33.3 37.0 21.5 50 8.0 N 4 9 2 5 1005.6 1004.2 0.0
01/05:00pm 33.5 36.0 20.3 46 8.9 NNW 7 13 4 7 1005.6 1004.2 0.0
01/04:30pm 33.5 36.4 20.6 46 8.7 N 6 13 3 7 1005.5 1004.1 0.0
01/04:00pm 33.6 34.6 17.7 38 10.3 NNE 9 15 5 8 1005.6 1004.2 0.0
01/03:30pm 34.0 37.1 22.1 50 8.2 NNW 9 13 5 7 1005.8 1004.4 0.0
01/03:00pm 33.2 35.2 20.0 45 8.8 NNE 9 19 5 10 1006.0 1004.6 0.0
01/02:30pm 33.3 36.1 20.8 48 8.4 NE 7 15 4 8 1006.4 1005.1 0.0
01/02:00pm 32.9 35.3 20.8 49 8.2 N 9 19 5 10 1006.8 1005.5 0.0
01/01:30pm 31.9 33.4 19.8 48 8.0 NNE 11 20 6 11 1007.3 1006.0 0.0
01/01:00pm 32.2 33.5 18.4 44 9.0 ENE 9 15 5 8 1007.7 1006.4 0.0
01/12:30pm 31.6 33.7 20.2 50 7.6 NNE 9 19 5 10 1008.2 1006.8 0.0
01/12:00pm 31.3 33.4 20.9 54 7.0 NE 11 20 6 11 1008.6 1007.2 0.0
01/11:30am 30.8 32.2 20.4 54 6.9 N 13 19 7 10 1009.1 1007.7 0.0
01/10:30am 29.9 31.5 20.7 57 6.2 NNE 13 19 7 10 1009.6 1008.2 0.0
01/10:00am 29.3 31.6 20.7 59 5.8 NE 9 17 5 9 1009.6 1008.2 0.0
01/09:30am 28.4 31.3 21.7 67 4.5 E 9 17 5 9 1009.8 1008.4 0.0
01/09:00am 27.4 29.5 21.0 68 4.3 ENE 11 15 6 8 1009.9 1008.5 5.6
01/08:30am 26.9 29.6 21.4 72 3.7 E 9 13 5 7 1009.6 1008.2 5.6
01/08:00am 26.2 29.1 21.0 73 3.5 ENE 7 11 4 6 1009.1 1007.7 5.6
01/07:30am 25.4 28.8 21.7 80 2.5 E 6 7 3 4 1009.0 1007.6 5.6
01/07:00am 24.2 27.7 21.9 87 1.5 ENE 6 9 3 5 1008.3 1006.8 5.6
01/06:30am 23.8 27.3 21.9 89 1.3 ENE 6 7 3 4 1008.3 1006.8 5.6
01/06:00am 24.0 27.2 21.7 87 1.5 ENE 7 9 4 5 1008.0 1006.5 5.6
01/05:30am 24.3 27.7 21.6 85 1.8 ENE 6 9 3 5 1007.6 1006.2 5.6
01/05:00am 24.7 27.8 21.4 82 2.2 NNE 7 11 4 6 1007.4 1006.0 5.6
01/04:30am 24.6 27.8 21.7 84 1.9 NE 7 9 4 5 1007.6 1006.2 5.6
01/04:00am 24.6 28.1 21.9 85 1.8 NNE 6 9 3 5 1007.7 1006.3 5.6
01/03:30am 25.0 28.7 21.5 81 2.3 NE 4 9 2 5 1007.7 1006.3 5.6
01/03:00am 25.0 28.2 21.3 80 2.5 NE 6 9 3 5 1007.7 1006.3 5.6
01/02:30am 25.3 27.9 21.2 78 2.7 NE 9 15 5 8 1007.9 1006.4 5.6
01/02:00am 25.3 27.6 21.4 79 2.6 NE 11 17 6 9 1008.0 1006.5 5.6
01/01:30am 25.4 28.2 21.5 79 2.6 NNE 9 13 5 7 1008.6 1007.1 5.6
01/01:00am 25.7 28.4 21.4 77 2.9 NE 9 15 5 8 1008.9 1007.4 5.6
01/12:30am 25.9 28.1 21.1 75 3.2 NE 11 15 6 8 1009.2 1007.8 5.6
 
Date/Time
EST
Temp
°C
App
Temp
°C
Dew
Point
Rel
Hum
%
Delta-T
°C
Wind Press
QNH
hPa
Press
MSL
hPa
Rain
since 9 am
mm
Dir
 
Spd
km/h
Gust
km/h
Spd
kts
Gust
kts
28/11:30pm 26.5 29.2 21.3 73 3.5 ENE 9 15 5 8 1009.2 1007.8 5.6
28/11:00pm 26.0 30.2 23.5 86 1.7 ENE 7 11 4 6 1009.4 1008.0 5.6
28/10:30pm 25.6 30.8 24.2 92 1.0 ENE 4 7 2 4 1009.3 1007.9 5.6
28/10:00pm 25.6 31.4 24.6 94 0.7 ENE 2 6 1 3 1008.9 1007.4 5.6
28/09:30pm 25.4 30.3 24.4 94 0.7 E 6 7 3 4 1008.8 1007.3 5.6
28/09:00pm 25.5 30.5 24.5 94 0.7 ESE 6 9 3 5 1008.5 1007.0 5.6
28/08:30pm 25.5 31.3 25.2 98 0.2 E 4 7 2 4 1007.9 1006.4 5.4
28/08:00pm 25.3 31.5 24.6 96 0.5 CALM 0 0 0 0 1007.1 1005.7 5.4
28/07:30pm 25.3 31.2 24.1 93 0.8 CALM 0 0 0 0 1006.9 1005.5 5.4
28/07:00pm 25.1 28.2 23.5 91 1.1 WSW 13 20 7 11 1006.5 1005.1 5.4
28/06:30pm 25.3 28.2 23.2 88 1.4 ESE 13 20 7 11 1006.8 1005.4 3.8
28/06:00pm 27.2 28.2 21.0 69 4.1 SSE 17 33 9 18 1005.6 1004.2 0.0
28/05:59pm 27.4 28.6 20.7 67 4.5 SSE 15 33 8 18 1005.6 1004.2 0.0
28/05:30pm 32.4 35.4 21.3 52 7.5 NW 7 11 4 6 1004.9 1003.5 0.0
28/05:00pm 33.2 35.2 20.0 45 8.8 NW 9 15 5 8 1004.9 1003.5 0.0
28/04:30pm 33.7 36.5 20.8 46 8.7 N 7 11 4 6 1004.8 1003.4 0.0
28/04:00pm 33.1 36.1 21.3 50 8.0 NW 7 17 4 9 1005.1 1003.7 0.0
28/03:30pm 33.9 38.2 22.0 49 8.2 W 2 13 1 7 1005.3 1003.9 0.0
28/03:00pm 33.6 37.0 22.7 53 7.6 NNW 9 15 5 8 1005.4 1004.0 0.0
28/02:30pm 33.0 35.4 21.5 50 7.8 N 11 17 6 9 1005.8 1004.4 0.0
28/02:00pm 33.0 36.6 21.2 50 8.0 S 4 9 2 5 1005.9 1004.5 0.0
28/01:30pm 32.2 35.5 22.6 57 6.6 N 9 13 5 7 1006.6 1005.2 0.0
28/01:00pm 31.9 34.9 20.8 51 7.5 NNW 6 9 3 5 1007.0 1005.6 0.0
28/12:30pm 31.6 35.8 23.2 61 5.8 N 6 11 3 6 1007.9 1006.4 0.0
28/12:00pm 31.1 35.1 22.7 61 5.8 SSE 6 11 3 6 1008.4 1006.9 0.0
28/11:30am 29.7 33.8 22.2 64 5.1 W 4 9 2 5 1008.8 1007.3 0.0
28/11:00am 29.8 33.8 22.8 66 4.8 ENE 6 9 3 5 1008.9 1007.4 0.0
28/10:30am 29.1 33.0 22.6 68 4.5 N 6 11 3 6 1009.3 1007.9 0.0
28/10:00am 28.6 31.9 21.9 67 4.5 NNE 7 13 4 7 1009.3 1007.9 0.0
28/09:30am 27.7 32.2 22.9 75 3.3 N 4 9 2 5 1009.5 1008.1 0.0
28/09:00am 27.1 31.4 23.6 81 2.4 ENE 7 11 4 6 1009.4 1008.0 0.4
28/08:30am 25.6 31.2 23.5 88 1.4 CALM 0 0 0 0 1009.2 1007.8 0.4
28/08:00am 25.4 31.1 23.8 91 1.1 CALM 0 0 0 0 1009.0 1007.6 0.4
28/07:30am 25.0 31.0 24.3 96 0.5 CALM 0 0 0 0 1008.4 1006.9 0.4
28/07:00am 24.3 30.3 24.3 100 0.0 CALM 0 0 0 0 1008.2 1006.7 0.4
28/06:30am 24.0 29.8 24.0 100 0.0 CALM 0 0 0 0 1007.7 1006.3 0.4
28/06:00am 24.1 30.0 24.1 100 0.0 CALM 0 0 0 0 1007.3 1005.9 0.4
28/05:30am 24.4 29.7 24.4 100 0.0 NNE 4 7 2 4 1007.1 1005.7 0.4
28/05:00am 24.7 31.0 24.7 100 0.0 CALM 0 9 0 5 1007.1 1005.7 0.4
28/04:30am 24.7 31.0 24.7 100 0.0 CALM 0 0 0 0 1007.1 1005.7 0.4
28/04:00am 24.7 31.0 24.7 100 0.0 CALM 0 0 0 0 1007.0 1005.6 0.4
28/03:30am 24.6 30.8 24.6 100 0.0 CALM 0 0 0 0 1006.8 1005.4 0.4
28/03:00am 24.7 30.6 24.7 100 0.0 E 2 7 1 4 1006.9 1005.5 0.4
28/02:30am 24.8 31.1 24.8 100 0.0 CALM 0 0 0 0 1007.2 1005.8 0.4
28/02:00am 25.1 31.6 25.1 100 0.0 CALM 0 0 0 0 1008.1 1006.6 0.4
28/01:30am 24.9 31.3 24.9 100 0.0 CALM 0 0 0 0 1008.9 1007.4 0.4
28/01:00am 25.1 31.6 25.1 100 0.0 CALM 0 0 0 0 1008.9 1007.4 0.4
28/12:30am 24.9 31.3 24.9 100 0.0 CALM 0 0 0 0 1009.1 1007.7 0.4
28/12:00am 24.9 31.2 24.7 99 0.1 CALM 0 0 0 0 1009.3 1007.9 0.4
 
Date/Time
EST
Temp
°C
App
Temp
°C
Dew
Point
Rel
Hum
%
Delta-T
°C
Wind Press
QNH
hPa
Press
MSL
hPa
Rain
since 9 am
mm
Dir
 
Spd
km/h
Gust
km/h
Spd
kts
Gust
kts
27/11:30pm 24.7 30.7 24.2 97 0.3 CALM 0 0 0 0 1009.4 1008.0 0.2
27/11:00pm 25.2 30.8 24.3 95 0.6 SW 2 7 1 4 1009.7 1008.3 0.0
27/10:30pm 25.5 28.9 23.4 88 1.4 S 11 15 6 8 1010.3 1008.9 0.0
27/10:00pm 28.2 31.3 22.2 70 4.1 ENE 9 17 5 9 1009.9 1008.5 0.0
27/09:30pm 28.4 30.6 21.9 68 4.4 N 13 20 7 11 1008.9 1007.4 0.0
27/09:00pm 28.8 30.5 22.3 68 4.4 NNE 17 24 9 13 1008.2 1006.7 0.0
27/08:30pm 29.2 32.2 22.7 68 4.5 NNE 11 17 6 9 1007.7 1006.3 0.0
27/08:00pm 28.2 33.4 22.9 73 3.6 CALM 0 0 0 0 1007.2 1005.8 0.0
27/07:30pm 28.6 34.0 23.3 73 3.7 CALM 0 0 0 0 1006.8 1005.4 0.0
27/07:00pm 29.1 33.0 22.6 68 4.5 NW 6 7 3 4 1006.2 1004.8 0.0
27/06:30pm 30.3 34.6 22.7 64 5.2 NW 4 7 2 4 1005.6 1004.2 0.0
27/06:00pm 31.2 34.4 21.7 57 6.5 W 7 9 4 5 1005.2 1003.8 0.0
27/05:30pm 31.6 35.0 22.0 56 6.6 W 7 11 4 6 1004.8 1003.4 0.0
27/05:00pm 30.5 33.8 21.8 59 5.9 WSW 7 11 4 6 1004.7 1003.3 0.0
27/04:30pm 31.2 33.9 21.4 56 6.6 SW 9 15 5 8 1004.7 1003.3 0.0
27/04:00pm 30.9 33.6 22.8 62 5.6 SSW 13 17 7 9 1004.7 1003.3 0.0
27/03:30pm 31.7 34.3 21.2 53 7.1 SW 9 22 5 12 1004.9 1003.5 0.0
27/03:00pm 33.2 36.5 20.0 45 8.8 SW 2 9 1 5 1005.1 1003.7 0.0
27/02:30pm 32.8 35.9 20.3 47 8.4 NNW 4 9 2 5 1005.4 1004.0 0.0
27/02:00pm 32.9 35.7 20.8 49 8.2 NW 7 11 4 6 1005.8 1004.4 0.0
27/01:30pm 32.6 35.9 21.5 52 7.6 E 6 11 3 6 1006.4 1005.0 0.0
27/01:00pm 31.9 35.8 22.6 58 6.4 WSW 6 11 3 6 1007.0 1005.6 0.0
27/12:30pm 31.7 34.5 21.5 54 6.9 W 9 17 5 9 1007.7 1006.3 0.0
27/12:00pm 31.4 34.6 22.4 59 6.2 NNW 9 15 5 8 1008.3 1006.8 0.0
27/11:30am 30.8 33.8 21.3 57 6.4 NNE 7 11 4 6 1008.8 1007.3 0.0
27/11:00am 30.9 34.2 22.5 61 5.8 NNW 9 17 5 9 1009.1 1007.7 0.0
27/10:30am 30.0 32.7 21.4 60 5.8 NNE 9 13 5 7 1009.4 1008.0 0.0
27/10:00am 29.4 33.0 23.1 69 4.3 NNW 9 17 5 9 1009.4 1008.0 0.0
27/09:30am 28.8 33.3 22.3 68 4.4 ENE 2 11 1 6 1009.3 1007.9 0.0
27/09:00am 28.3 32.5 23.2 74 3.5 ENE 6 13 3 7 1009.2 1007.8 0.0
27/08:30am 26.8 31.0 23.1 80 2.5 NE 6 11 3 6 1009.1 1007.7 0.0
27/08:00am 26.2 31.2 22.5 80 2.5 CALM 0 6 0 3 1009.0 1007.6 0.0
27/07:30am 25.3 29.6 22.6 85 1.8 NE 4 7 2 4 1008.6 1007.1 0.0
27/07:00am 24.3 29.8 23.4 95 0.6 CALM 0 0 0 0 1008.2 1006.7 0.0
27/06:30am 23.3 28.6 23.1 99 0.1 CALM 0 0 0 0 1008.0 1006.5 0.0
27/06:00am 23.5 28.9 23.2 98 0.2 CALM 0 0 0 0 1007.7 1006.3 0.0
27/05:30am 23.6 29.2 23.6 100 0.0 CALM 0 0 0 0 1007.4 1006.0 0.0
27/05:00am 23.7 29.1 23.2 97 0.3 CALM 0 2 0 1 1007.1 1005.7 0.0
27/04:30am 23.6 28.9 23.1 97 0.3 CALM 0 0 0 0 1006.9 1005.5 0.0
27/04:00am 23.8 29.0 22.8 94 0.7 CALM 0 0 0 0 1006.8 1005.4 0.0
27/03:30am 24.0 29.1 22.6 92 0.9 CALM 0 0 0 0 1006.8 1005.4 0.0
27/03:00am 24.2 29.6 23.3 95 0.6 CALM 0 0 0 0 1006.9 1005.5 0.0
27/02:30am 24.2 29.4 22.8 92 0.9 CALM 0 0 0 0 1007.2 1005.8 0.0
27/02:00am 24.3 29.4 22.6 90 1.2 CALM 0 0 0 0 1007.6 1006.2 0.0
27/01:30am 24.7 28.9 22.4 87 1.6 N 4 7 2 4 1008.1 1006.6 0.0
27/01:00am 24.8 28.3 22.1 85 1.8 N 7 9 4 5 1008.3 1006.8 0.0
27/12:30am 25.2 29.8 21.7 81 2.3 CALM 0 0 0 0 1008.6 1007.1 0.0
27/12:00am 25.9 29.1 21.6 77 2.9 NNE 7 13 4 7 1008.8 1007.3 0.0
 
Date/Time
EST
Temp
°C
App
Temp
°C
Dew
Point
Rel
Hum
%
Delta-T
°C
Wind Press
QNH
hPa
Press
MSL
hPa
Rain
since 9 am
mm
Dir
 
Spd
km/h
Gust
km/h
Spd
kts
Gust
kts
26/11:30pm 26.3 28.8 21.7 76 3.1 NNE 11 15 6 8 1008.7 1007.2 0.0
26/11:00pm 26.4 29.8 22.0 77 3.0 NE 7 11 4 6 1008.8 1007.3 0.0
26/10:30pm 26.5 29.9 21.7 75 3.2 NE 6 9 3 5 1008.7 1007.2 0.0
26/10:00pm 26.5 31.0 22.3 78 2.8 NE 2 9 1 5 1008.6 1007.1 0.0
26/09:30pm 26.6 31.2 21.8 75 3.2 CALM 0 6 0 3 1008.2 1006.7 0.0
26/09:00pm 26.7 31.5 22.1 76 3.1 CALM 0 0 0 0 1007.9 1006.4 0.0

Other Formats:

Comma delimited format used in spreadsheet applications
http://www.bom.gov.au/fwo/IDQ60801/IDQ60801.94276.axf

JavaScript Object Notation format (JSON) in row-major order
http://www.bom.gov.au/fwo/IDQ60801/IDQ60801.94276.json